createdAt,value
2022-10-12T00:01:08.286Z,8.50
2022-10-12T00:03:36.844Z,8.60
2022-10-12T00:06:08.754Z,8.30
2022-10-12T00:08:37.416Z,9.17
2022-10-12T00:11:06.143Z,8.27
2022-10-12T00:13:34.237Z,7.37
2022-10-12T00:16:07.187Z,8.70
2022-10-12T00:18:35.640Z,9.47
2022-10-12T00:21:09.570Z,9.07
2022-10-12T00:23:38.293Z,9.60
2022-10-12T00:26:09.354Z,12.43
2022-10-12T00:28:37.019Z,11.97
2022-10-12T00:31:13.094Z,13.17
2022-10-12T00:33:41.213Z,14.37
2022-10-12T00:36:30.159Z,16.60
2022-10-12T00:38:57.729Z,15.20
2022-10-12T00:41:29.429Z,14.30
2022-10-12T00:43:58.772Z,15.27
2022-10-12T00:46:33.333Z,15.83
2022-10-12T00:49:17.115Z,15.80
2022-10-12T00:51:50.618Z,13.63
2022-10-12T00:54:24.998Z,16.20
2022-10-12T00:56:54.810Z,14.30
2022-10-12T00:59:28.598Z,14.53
2022-10-12T01:01:56.417Z,12.43
2022-10-12T01:04:24.687Z,14.00
2022-10-12T01:06:53.011Z,12.97
2022-10-12T01:09:21.549Z,12.13
2022-10-12T01:11:49.514Z,11.57
2022-10-12T01:14:17.434Z,12.90
2022-10-12T01:16:54.531Z,13.03
2022-10-12T01:19:43.198Z,13.73
2022-10-12T01:22:18.263Z,14.23
2022-10-12T01:24:53.070Z,13.00
2022-10-12T01:27:26.281Z,11.47
2022-10-12T01:30:05.864Z,13.20
2022-10-12T01:32:45.099Z,11.70
2022-10-12T01:35:26.837Z,12.83
2022-10-12T01:38:42.766Z,12.57
2022-10-12T01:41:15.814Z,11.77
2022-10-12T01:43:45.172Z,12.17
2022-10-12T01:46:18.250Z,12.13
2022-10-12T01:48:49.174Z,12.67
2022-10-12T01:51:23.631Z,12.27
2022-10-12T01:54:14.204Z,11.63
2022-10-12T01:57:12.353Z,11.33
2022-10-12T02:00:02.814Z,11.57
2022-10-12T02:02:33.022Z,11.47
2022-10-12T02:05:44.698Z,11.23
2022-10-12T02:08:34.023Z,9.33
2022-10-12T02:11:16.661Z,9.70
2022-10-12T02:13:48.412Z,9.77
2022-10-12T02:16:20.032Z,9.57
2022-10-12T02:18:53.118Z,9.73
2022-10-12T02:21:29.440Z,9.47
2022-10-12T02:24:01.072Z,10.53
2022-10-12T02:26:32.180Z,9.70
2022-10-12T02:29:03.875Z,9.90
2022-10-12T02:31:47.768Z,9.63
2022-10-12T02:34:19.038Z,10.10
2022-10-12T02:37:15.336Z,8.60
2022-10-12T02:39:54.338Z,8.30
2022-10-12T02:42:46.505Z,8.00
2022-10-12T02:45:23.594Z,8.30
2022-10-12T02:47:54.415Z,7.80
2022-10-12T02:50:24.723Z,8.80
2022-10-12T02:52:53.338Z,7.47
2022-10-12T02:55:20.839Z,8.20
2022-10-12T02:57:48.348Z,8.80
2022-10-12T03:00:16.515Z,7.40
2022-10-12T03:02:44.036Z,7.87
2022-10-12T03:05:11.440Z,7.37
2022-10-12T03:07:39.198Z,6.53
2022-10-12T03:10:07.287Z,7.70
2022-10-12T03:12:34.742Z,7.77
2022-10-12T03:15:02.162Z,7.60
2022-10-12T03:17:31.048Z,7.53
2022-10-12T03:19:58.446Z,7.27
2022-10-12T03:22:25.934Z,7.93
2022-10-12T03:24:53.462Z,6.40
2022-10-12T03:27:20.991Z,7.30
2022-10-12T03:29:48.486Z,6.47
2022-10-12T03:32:16.179Z,7.63
2022-10-12T03:34:43.726Z,6.77
2022-10-12T03:37:11.296Z,7.60
2022-10-12T03:39:38.801Z,7.77
2022-10-12T03:42:06.252Z,7.13
2022-10-12T03:44:33.694Z,6.87
2022-10-12T03:47:01.107Z,7.67
2022-10-12T03:49:28.836Z,8.50
2022-10-12T03:51:56.331Z,8.27
2022-10-12T03:54:26.060Z,7.10
2022-10-12T03:56:53.752Z,7.43
2022-10-12T03:59:21.182Z,6.67
2022-10-12T04:01:49.000Z,6.87
2022-10-12T04:04:16.670Z,7.87
2022-10-12T04:06:46.353Z,7.37
2022-10-12T04:09:13.793Z,6.93
2022-10-12T04:11:41.241Z,7.87
2022-10-12T04:14:08.782Z,7.40
2022-10-12T04:16:36.200Z,7.37
2022-10-12T04:19:03.715Z,7.10
2022-10-12T04:21:31.990Z,7.30
2022-10-12T04:23:59.398Z,7.17
2022-10-12T04:26:26.972Z,6.50
2022-10-12T04:28:54.461Z,7.70
2022-10-12T04:31:21.994Z,7.77
2022-10-12T04:33:49.473Z,7.27
2022-10-12T04:36:16.965Z,7.60
2022-10-12T04:38:44.467Z,7.90
2022-10-12T04:41:12.017Z,7.30
2022-10-12T04:43:39.432Z,6.77
2022-10-12T04:46:07.083Z,7.97
2022-10-12T04:48:34.487Z,7.70
2022-10-12T04:51:02.034Z,7.03
2022-10-12T04:53:29.779Z,8.47
2022-10-12T04:55:57.824Z,7.63
2022-10-12T04:58:25.313Z,7.37
2022-10-12T05:00:52.884Z,7.30
2022-10-12T05:03:20.396Z,9.17
2022-10-12T05:05:47.895Z,9.15
2022-10-12T05:08:15.530Z,8.53
2022-10-12T05:10:43.143Z,9.07
2022-10-12T05:13:10.556Z,9.27
2022-10-12T05:15:38.051Z,6.95
2022-10-12T05:18:05.683Z,8.02
2022-10-12T05:20:33.252Z,7.20
2022-10-12T05:23:00.845Z,7.63
2022-10-12T05:25:29.758Z,7.80
2022-10-12T05:27:57.516Z,7.32
2022-10-12T05:30:24.925Z,7.60
2022-10-12T05:32:52.502Z,7.57
2022-10-12T05:35:23.180Z,7.22
2022-10-12T05:37:50.738Z,7.80
2022-10-12T05:40:18.351Z,7.45
2022-10-12T05:42:46.062Z,8.10
2022-10-12T05:45:13.594Z,8.25
2022-10-12T05:47:41.641Z,7.90
2022-10-12T05:50:09.734Z,8.32
2022-10-12T05:52:37.564Z,6.88
2022-10-12T05:55:05.702Z,6.85
2022-10-12T05:57:33.278Z,6.03
2022-10-12T06:00:00.777Z,6.05
2022-10-12T06:02:28.346Z,6.28
2022-10-12T06:04:55.772Z,6.40
2022-10-12T06:07:23.315Z,6.07
2022-10-12T06:09:51.189Z,5.60
2022-10-12T06:12:18.710Z,5.43
2022-10-12T06:14:46.364Z,5.63
2022-10-12T06:17:13.814Z,6.22
2022-10-12T06:19:41.199Z,4.82
2022-10-12T06:22:08.684Z,6.32
2022-10-12T06:24:36.200Z,5.55
2022-10-12T06:27:03.900Z,5.88
2022-10-12T06:29:31.448Z,5.75
2022-10-12T06:31:59.378Z,6.35
2022-10-12T06:34:26.798Z,6.93
2022-10-12T06:36:57.120Z,6.60
2022-10-12T06:39:28.379Z,7.78
2022-10-12T06:41:55.816Z,7.43
2022-10-12T06:44:23.600Z,7.72
2022-10-12T06:46:51.056Z,7.65
2022-10-12T06:49:18.508Z,8.48
2022-10-12T06:51:46.226Z,7.50
2022-10-12T06:54:13.735Z,8.20
2022-10-12T06:56:41.403Z,7.43
2022-10-12T06:59:11.037Z,6.90
2022-10-12T07:01:39.008Z,7.60
2022-10-12T07:04:06.712Z,6.97
2022-10-12T07:06:34.174Z,6.47
2022-10-12T07:09:04.046Z,6.75
2022-10-12T07:11:31.584Z,7.22
2022-10-12T07:13:59.037Z,6.90
2022-10-12T07:16:26.524Z,6.45
2022-10-12T07:18:54.075Z,6.65
2022-10-12T07:21:24.551Z,6.25
2022-10-12T07:23:52.968Z,5.63
2022-10-12T07:26:20.513Z,6.03
2022-10-12T07:28:48.709Z,5.28
2022-10-12T07:31:16.237Z,4.43
2022-10-12T07:33:43.691Z,4.95
2022-10-12T07:36:17.289Z,5.00
2022-10-12T07:41:17.801Z,4.35
2022-10-12T07:46:43.173Z,5.47
2022-10-12T07:53:19.213Z,4.65
2022-10-12T07:57:00.099Z,3.70
2022-10-12T08:00:16.354Z,3.72
2022-10-12T08:02:44.015Z,3.80
2022-10-12T08:05:38.162Z,4.00
2022-10-12T08:09:19.676Z,4.13
2022-10-12T08:12:02.499Z,3.90
2022-10-12T08:14:42.092Z,4.20
2022-10-12T08:17:10.073Z,4.55
2022-10-12T08:20:04.644Z,4.70
2022-10-12T08:22:50.712Z,5.07
2022-10-12T08:25:24.296Z,3.95
2022-10-12T08:28:10.157Z,4.63
2022-10-12T08:30:39.285Z,4.45
2022-10-12T08:33:10.274Z,4.28
2022-10-12T08:35:39.253Z,4.30
2022-10-12T08:38:07.910Z,4.03
2022-10-12T08:40:45.868Z,4.53
2022-10-12T08:43:22.206Z,3.75
2022-10-12T08:46:00.886Z,3.35
2022-10-12T08:48:31.111Z,3.20
2022-10-12T08:51:03.297Z,3.10
2022-10-12T08:53:50.864Z,2.95
2022-10-12T08:58:48.102Z,3.42
2022-10-12T09:01:30.698Z,2.28
2022-10-12T09:04:29.690Z,2.60
2022-10-12T09:07:12.445Z,3.67
2022-10-12T09:10:17.848Z,3.28
2022-10-12T09:12:55.759Z,3.35
2022-10-12T09:15:29.204Z,3.60
2022-10-12T09:17:59.726Z,3.38
2022-10-12T09:20:30.793Z,4.07
2022-10-12T09:23:22.366Z,3.17
2022-10-12T09:25:50.715Z,3.47
2022-10-12T09:28:42.128Z,3.63
2022-10-12T09:31:09.661Z,3.97
2022-10-12T09:33:58.839Z,3.90
2022-10-12T09:36:33.839Z,4.20
2022-10-12T09:39:05.292Z,3.88
2022-10-12T09:41:40.951Z,3.03
2022-10-12T09:44:16.937Z,3.65
2022-10-12T09:46:55.390Z,3.72
2022-10-12T09:49:51.815Z,3.70
2022-10-12T09:52:27.855Z,4.05
2022-10-12T09:55:05.913Z,3.00
2022-10-12T09:57:39.932Z,3.40
2022-10-12T10:00:25.214Z,3.53
2022-10-12T10:02:53.661Z,3.58
2022-10-12T10:05:24.453Z,3.08
2022-10-12T10:07:52.210Z,4.00
2022-10-12T10:10:29.271Z,3.70
2022-10-12T10:13:03.061Z,3.30
2022-10-12T10:15:41.410Z,2.90
2022-10-12T10:26:26.599Z,3.47
2022-10-12T10:28:58.808Z,2.90
2022-10-12T10:31:29.367Z,3.70
2022-10-12T10:42:34.904Z,3.83
2022-10-12T10:45:07.340Z,4.13
2022-10-12T10:47:47.080Z,3.97
2022-10-12T10:50:27.452Z,4.25
2022-10-12T10:52:59.452Z,4.38
2022-10-12T10:55:44.611Z,5.38
2022-10-12T10:58:51.269Z,4.10
2022-10-12T11:01:45.423Z,4.20
2022-10-12T11:04:23.070Z,3.83
2022-10-12T11:06:54.009Z,3.80
2022-10-12T11:09:31.701Z,3.58
2022-10-12T11:12:08.850Z,3.97
2022-10-12T11:14:48.991Z,3.33
2022-10-12T11:17:27.098Z,3.58
2022-10-12T11:20:37.637Z,3.67
2022-10-12T11:23:42.348Z,3.83
2022-10-12T11:26:38.539Z,4.13
2022-10-12T11:29:06.652Z,4.32
2022-10-12T11:31:38.232Z,4.05
2022-10-12T11:34:13.297Z,4.13
2022-10-12T11:36:55.803Z,4.90
2022-10-12T11:39:37.002Z,4.45
2022-10-12T11:42:27.099Z,3.90
2022-10-12T11:44:55.152Z,4.25
2022-10-12T11:47:22.545Z,4.57
2022-10-12T11:49:57.925Z,3.90
2022-10-12T11:52:36.290Z,3.95
2022-10-12T11:55:42.918Z,3.47
2022-10-12T11:58:24.406Z,3.97
2022-10-12T12:01:07.695Z,3.97
2022-10-12T12:04:41.087Z,3.85
2022-10-12T12:07:38.224Z,3.78
2022-10-12T12:10:26.731Z,3.90
2022-10-12T12:13:18.000Z,3.05
2022-10-12T12:15:49.738Z,4.75
2022-10-12T12:18:28.050Z,3.53
2022-10-12T12:21:10.398Z,4.90
2022-10-12T12:23:49.913Z,3.13
2022-10-12T12:26:19.293Z,3.78
2022-10-12T12:29:09.874Z,3.95
2022-10-12T12:31:38.107Z,3.38
2022-10-12T12:34:17.371Z,3.90
2022-10-12T12:36:51.655Z,3.95
2022-10-12T12:39:32.806Z,3.38
2022-10-12T12:42:09.376Z,3.30
2022-10-12T12:44:42.983Z,3.63
2022-10-12T12:50:02.017Z,2.88
2022-10-12T12:52:35.020Z,2.92
2022-10-12T12:55:14.535Z,2.70
2022-10-12T12:58:00.682Z,5.57
2022-10-12T13:01:06.589Z,2.55
2022-10-12T13:03:48.724Z,3.08
2022-10-12T13:06:30.218Z,2.85
2022-10-12T13:09:20.959Z,2.40
2022-10-12T13:11:57.025Z,2.55
2022-10-12T13:14:47.126Z,3.30
2022-10-12T13:17:32.207Z,2.88
2022-10-12T13:20:06.517Z,2.88
2022-10-12T13:22:35.555Z,2.63
2022-10-12T13:25:07.161Z,3.30
2022-10-12T13:27:46.677Z,3.10
2022-10-12T13:30:32.756Z,2.78
2022-10-12T13:33:10.066Z,2.92
2022-10-12T13:38:26.422Z,3.05
2022-10-12T13:41:08.569Z,3.25
2022-10-12T13:43:43.925Z,3.28
2022-10-12T13:46:35.810Z,2.90
2022-10-12T13:49:04.359Z,2.92
2022-10-12T13:51:32.046Z,3.35
2022-10-12T13:53:59.555Z,3.50
2022-10-12T13:56:29.085Z,2.88
2022-10-12T13:59:05.586Z,3.38
2022-10-12T14:01:51.731Z,4.40
2022-10-12T14:04:19.528Z,4.50
2022-10-12T14:06:53.018Z,3.95
2022-10-12T14:09:24.158Z,3.80
2022-10-12T14:11:53.520Z,3.90
2022-10-12T14:14:30.110Z,4.03
2022-10-12T14:16:57.767Z,3.83
2022-10-12T14:19:40.258Z,4.03
2022-10-12T14:22:08.351Z,5.15
2022-10-12T14:24:37.119Z,4.53
2022-10-12T14:27:06.650Z,4.93
2022-10-12T14:29:45.465Z,4.10
2022-10-12T14:32:26.528Z,3.83
2022-10-12T14:35:27.601Z,4.10
2022-10-12T14:38:41.199Z,3.75
2022-10-12T14:41:36.410Z,4.68
2022-10-12T14:44:10.879Z,4.40
2022-10-12T14:46:41.883Z,4.53
2022-10-12T14:49:18.591Z,4.28
2022-10-12T14:51:47.870Z,4.45
2022-10-12T14:54:15.613Z,4.32
2022-10-12T14:56:43.082Z,4.25
2022-10-12T15:07:16.224Z,4.10
2022-10-12T15:09:44.615Z,4.53
2022-10-12T15:12:14.493Z,3.60
2022-10-12T15:14:43.051Z,4.40
2022-10-12T15:17:39.702Z,5.03
2022-10-12T15:20:10.964Z,4.43
2022-10-12T15:22:39.126Z,4.38
2022-10-12T15:25:18.999Z,5.00
2022-10-12T15:27:46.568Z,4.65
2022-10-12T15:30:14.928Z,5.00
2022-10-12T15:32:42.813Z,4.93
2022-10-12T15:35:18.934Z,5.72
2022-10-12T15:37:47.173Z,5.07
2022-10-12T15:40:16.384Z,5.13
2022-10-12T15:42:44.209Z,4.90
2022-10-12T15:45:27.054Z,5.15
2022-10-12T15:47:55.123Z,5.65
2022-10-12T15:50:29.075Z,6.40
2022-10-12T15:52:57.133Z,7.07
2022-10-12T15:55:27.704Z,9.75
2022-10-12T15:57:56.394Z,5.35
2022-10-12T16:00:27.338Z,5.50
2022-10-12T16:02:56.683Z,5.80
2022-10-12T16:05:33.156Z,6.07
2022-10-12T16:08:01.842Z,5.43
2022-10-12T16:10:33.099Z,6.68
2022-10-12T16:13:01.240Z,5.10
2022-10-12T16:15:33.047Z,5.43
2022-10-12T16:18:02.331Z,5.93
2022-10-12T16:20:31.481Z,5.93
2022-10-12T16:23:00.828Z,5.50
2022-10-12T16:25:28.484Z,5.50
2022-10-12T16:27:57.528Z,5.50
2022-10-12T16:30:26.184Z,5.95
2022-10-12T16:32:54.430Z,6.05
2022-10-12T16:35:21.960Z,6.22
2022-10-12T16:37:49.786Z,5.65
2022-10-12T16:40:17.451Z,5.40
2022-10-12T16:42:44.961Z,6.25
2022-10-12T16:45:13.211Z,6.25
2022-10-12T16:47:42.689Z,5.65
2022-10-12T16:50:10.711Z,5.80
2022-10-12T16:52:38.461Z,6.00
2022-10-12T16:55:06.704Z,6.38
2022-10-12T16:57:34.233Z,5.75
2022-10-12T17:00:02.003Z,5.83
2022-10-12T17:02:31.588Z,5.93
2022-10-12T17:04:59.071Z,5.45
2022-10-12T17:07:26.991Z,5.60
2022-10-12T17:09:57.579Z,6.67
2022-10-12T17:12:26.350Z,5.93
2022-10-12T17:14:54.224Z,5.43
2022-10-12T17:17:21.918Z,6.15
2022-10-12T17:19:49.471Z,6.03
2022-10-12T17:22:17.533Z,5.10
2022-10-12T17:24:45.174Z,5.23
2022-10-12T17:27:14.655Z,6.00
2022-10-12T17:29:42.911Z,4.85
2022-10-12T17:32:11.057Z,5.47
2022-10-12T17:34:43.303Z,5.47
2022-10-12T17:37:13.958Z,5.80
2022-10-12T17:39:44.163Z,4.90
2022-10-12T17:42:14.349Z,5.72
2022-10-12T17:44:42.149Z,5.35
2022-10-12T17:47:09.744Z,5.83
2022-10-12T17:49:37.386Z,5.47
2022-10-12T17:52:05.120Z,5.18
2022-10-12T17:54:33.046Z,5.80
2022-10-12T17:57:00.572Z,5.00
2022-10-12T17:59:28.250Z,5.10
2022-10-12T18:01:55.819Z,5.20
2022-10-12T18:04:23.352Z,5.53
2022-10-12T18:06:51.165Z,5.25
2022-10-12T18:09:20.902Z,5.35
2022-10-12T18:11:48.923Z,5.13
2022-10-12T18:14:16.490Z,4.65
2022-10-12T18:16:44.036Z,4.72
2022-10-12T18:19:11.818Z,5.40
2022-10-12T18:21:40.149Z,4.90
2022-10-12T18:24:16.475Z,5.90
2022-10-12T18:26:46.103Z,4.90
2022-10-12T18:29:16.457Z,4.93
2022-10-12T18:31:44.045Z,4.82
2022-10-12T18:34:11.743Z,5.10
2022-10-12T18:36:40.888Z,4.82
2022-10-12T18:39:08.839Z,4.95
2022-10-12T18:41:36.540Z,5.63
2022-10-12T18:44:05.696Z,4.13
2022-10-12T18:46:35.389Z,5.38
2022-10-12T18:49:05.470Z,5.38
2022-10-12T18:51:35.253Z,6.00
2022-10-12T18:54:03.790Z,5.57
2022-10-12T18:56:32.895Z,6.72
2022-10-12T18:59:01.022Z,5.97
2022-10-12T19:01:30.260Z,8.07
2022-10-12T19:03:59.956Z,6.57
2022-10-12T19:06:34.204Z,6.40
2022-10-12T19:09:02.542Z,6.40
2022-10-12T19:11:49.428Z,6.88
2022-10-12T19:23:43.479Z,6.65
2022-10-12T19:42:38.534Z,5.35
2022-10-12T19:45:41.143Z,5.85
2022-10-12T19:48:09.519Z,4.90
2022-10-12T19:50:37.075Z,4.90
2022-10-12T19:53:05.075Z,4.65
2022-10-12T19:55:34.124Z,4.85
2022-10-12T19:58:16.962Z,4.68
2022-10-12T20:00:44.512Z,5.45
2022-10-12T20:03:12.355Z,4.97
2022-10-12T20:09:07.591Z,4.45
2022-10-12T20:11:35.626Z,5.30
2022-10-12T20:14:03.404Z,5.28
2022-10-12T20:16:34.822Z,4.53
2022-10-12T20:19:04.324Z,4.45
2022-10-12T20:21:31.835Z,4.50
2022-10-12T20:23:59.414Z,4.25
2022-10-12T20:26:27.412Z,4.25
2022-10-12T20:28:55.030Z,4.47
2022-10-12T20:31:27.561Z,4.78
2022-10-12T20:33:56.196Z,4.50
2022-10-12T20:36:26.429Z,4.50
2022-10-12T20:38:54.160Z,4.65
2022-10-12T20:41:22.019Z,4.68
2022-10-12T20:43:49.729Z,4.82
2022-10-12T20:46:18.198Z,4.15
2022-10-12T20:48:46.332Z,4.47
2022-10-12T20:51:27.707Z,4.13
2022-10-12T20:53:58.968Z,4.85
2022-10-12T20:56:28.402Z,4.45
2022-10-12T20:58:56.147Z,4.90
2022-10-12T21:01:25.974Z,4.15
2022-10-12T21:03:54.210Z,4.40
2022-10-12T21:06:23.552Z,4.82
2022-10-12T21:08:56.290Z,4.30
2022-10-12T21:11:24.766Z,4.10
2022-10-12T21:13:52.408Z,4.60
2022-10-12T21:16:22.171Z,4.75
2022-10-12T21:18:53.640Z,4.40
2022-10-12T21:21:21.315Z,4.47
2022-10-12T21:23:54.912Z,4.68
2022-10-12T21:26:27.333Z,5.03
2022-10-12T21:28:55.456Z,3.97
2022-10-12T21:31:28.204Z,4.60
2022-10-12T21:34:03.612Z,4.60
2022-10-12T21:36:32.816Z,3.95
2022-10-12T21:39:00.301Z,3.72
2022-10-12T21:41:29.213Z,4.47
2022-10-12T21:43:57.755Z,4.80
2022-10-12T21:46:30.553Z,4.32
2022-10-12T21:49:00.168Z,4.13
2022-10-12T21:51:31.691Z,4.75
2022-10-12T21:53:59.227Z,4.55
2022-10-12T21:56:29.209Z,4.28
2022-10-12T21:58:59.032Z,4.82
2022-10-12T22:01:34.619Z,5.07
2022-10-12T22:04:05.539Z,5.25
2022-10-12T22:06:34.550Z,5.32
2022-10-12T22:09:08.651Z,4.45
2022-10-12T22:11:37.361Z,4.75
2022-10-12T22:14:12.801Z,4.90
2022-10-12T22:16:40.573Z,4.75
2022-10-12T22:19:08.810Z,4.85
2022-10-12T22:21:36.700Z,4.60
2022-10-12T22:24:04.318Z,4.70
2022-10-12T22:26:32.307Z,4.53
2022-10-12T22:29:03.843Z,4.00
2022-10-12T22:31:31.482Z,5.03
2022-10-12T22:33:59.138Z,4.50
2022-10-12T22:36:28.939Z,5.05
2022-10-12T22:38:56.504Z,4.65
2022-10-12T22:41:24.601Z,4.10
2022-10-12T22:43:55.464Z,4.55
2022-10-12T22:46:25.111Z,5.03
2022-10-12T22:48:53.717Z,4.68
2022-10-12T22:51:33.157Z,4.40
2022-10-12T22:54:01.350Z,4.32
2022-10-12T22:56:29.942Z,4.30
2022-10-12T22:59:02.938Z,3.80
2022-10-12T23:01:30.652Z,4.28
2022-10-12T23:03:58.102Z,4.38
2022-10-12T23:06:26.117Z,4.72
2022-10-12T23:08:54.038Z,4.53
2022-10-12T23:11:25.042Z,4.05
2022-10-12T23:13:53.458Z,5.15
2022-10-12T23:16:23.803Z,4.00
2022-10-12T23:19:04.840Z,4.97
2022-10-12T23:21:33.943Z,4.00
2022-10-12T23:24:05.082Z,4.07
2022-10-12T23:26:33.628Z,4.65
2022-10-12T23:29:01.033Z,3.90
2022-10-12T23:31:30.697Z,4.53
2022-10-12T23:34:00.545Z,4.65
2022-10-12T23:36:28.455Z,4.38
2022-10-12T23:38:56.605Z,4.60
2022-10-12T23:41:24.699Z,3.90
2022-10-12T23:43:52.155Z,3.30
2022-10-12T23:46:19.680Z,3.95
2022-10-12T23:48:47.118Z,3.22
2022-10-12T23:51:14.603Z,3.22
2022-10-12T23:53:42.632Z,3.03
2022-10-12T23:56:10.475Z,2.75
2022-10-12T23:58:38.571Z,2.28
